Time;durP1;ratioP1;P1;durP2;ratioP2;P2;SDS_P1;SDS_P2;PMS_P1;PMS_P2;Temp;Humidity;BMP_temperature;BMP_pressure;BME280_temperature;BME280_humidity;BME280_pressure;Samples;Min_cycle;Max_cycle;Signal;HPM_P1;HPM_P2
2022/02/04 00:20:17;;;;;;;9.48;6.35;;;;;;;4.12;96.46;96416.81;2078800;28;20196;-61
2022/02/04 00:22:47;;;;;;;6.80;5.15;;;;;;;4.12;96.86;96419.41;2080380;28;20200;-61
2022/02/04 00:23:50;;;;;;;8.93;6.20;;;;;;;4.06;97.00;96422.28;2081021;28;20219;-62
2022/02/04 00:24:51;;;;;;;8.20;6.05;;;;;;;4.05;96.58;96422.34;2079548;28;20197;-61
2022/02/04 00:26:15;;;;;;;7.60;5.57;;;;;;;4.04;96.45;96426.69;2080593;28;20326;-61
2022/02/04 00:27:20;;;;;;;9.27;6.03;;;;;;;4.01;96.40;96415.63;2081049;28;20200;-61
2022/02/04 00:28:34;;;;;;;11.70;5.70;;;;;;;4.10;95.92;96423.81;2080909;28;20212;-61
2022/02/04 00:29:47;;;;;;;7.70;5.20;;;;;;;4.11;96.00;96425.50;2080903;28;20200;-61
2022/02/04 00:31:02;;;;;;;9.63;5.70;;;;;;;4.10;95.98;96421.22;2079033;28;20229;-61
2022/02/04 00:32:09;;;;;;;8.50;6.15;;;;;;;4.13;95.69;96431.44;2080995;28;20200;-61
2022/02/04 00:33:13;;;;;;;7.53;5.32;;;;;;;3.97;95.95;96401.97;2081039;28;20197;-61
2022/02/04 00:34:18;;;;;;;6.75;5.22;;;;;;;4.06;95.73;96424.88;2080887;28;20250;-61
2022/02/04 00:36:28;;;;;;;7.75;5.13;;;;;;;4.04;95.80;96418.94;2081061;28;20663;-61
2022/02/04 00:38:56;;;;;;;8.50;5.45;;;;;;;4.01;95.78;96424.22;2071453;28;20205;-62
2022/02/04 00:40:08;;;;;;;14.68;5.35;;;;;;;4.10;95.63;96429.00;2079986;28;20204;-62
2022/02/04 00:41:12;;;;;;;9.02;5.15;;;;;;;4.06;95.35;96417.09;2080359;28;20554;-61
2022/02/04 00:42:14;;;;;;;7.38;5.70;;;;;;;4.03;95.76;96426.75;2079805;28;20204;-61
2022/02/04 00:43:17;;;;;;;10.05;6.63;;;;;;;4.07;96.05;96423.94;2081065;28;20192;-61
2022/02/04 00:44:28;;;;;;;10.77;5.93;;;;;;;4.01;95.87;96419.06;2080192;28;20563;-61
2022/02/04 00:45:48;;;;;;;8.20;5.40;;;;;;;4.03;96.00;96427.59;2080056;28;20232;-62
2022/02/04 00:47:17;;;;;;;8.30;5.90;;;;;;;4.04;95.77;96428.44;2079252;28;20208;-62
2022/02/04 00:50:17;;;;;;;11.35;6.18;;;;;;;4.06;96.16;96430.06;2080350;28;20201;-62
2022/02/04 00:51:12;;;;;;;8.93;5.63;;;;;;;4.09;95.79;96434.25;2074905;28;20234;-61
2022/02/04 00:52:33;;;;;;;8.85;5.15;;;;;;;4.04;96.16;96439.66;2080024;28;20232;-61
2022/02/04 00:54:51;;;;;;;9.90;6.35;;;;;;;3.94;96.74;96435.81;2079920;28;20208;-61
2022/02/04 01:26:17;;;;;;;8.40;5.57;;;;;;;3.91;96.67;96460.09;2080412;28;20213;-61
2022/02/04 01:27:18;;;;;;;8.40;5.10;;;;;;;3.82;96.78;96438.91;2079784;28;20200;-61
2022/02/04 01:28:22;;;;;;;10.15;4.68;;;;;;;3.95;96.63;96458.19;2080763;28;20201;-61
2022/02/04 01:29:29;;;;;;;7.45;5.03;;;;;;;3.94;96.30;96459.97;2078726;28;20547;-61
2022/02/04 01:30:33;;;;;;;8.02;4.97;;;;;;;3.92;96.54;96461.78;2079449;28;20225;-61
2022/02/04 01:31:35;;;;;;;10.55;5.70;;;;;;;3.92;96.34;96455.72;2080364;28;20248;-61
2022/02/04 01:32:37;;;;;;;7.15;4.80;;;;;;;3.94;96.43;96459.13;2080659;28;20694;-61
2022/02/04 01:33:38;;;;;;;11.57;5.40;;;;;;;3.94;96.54;96451.34;2080622;28;20656;-61
2022/02/04 01:34:39;;;;;;;9.98;5.60;;;;;;;3.93;96.53;96452.25;2080528;28;20197;-61
2022/02/04 01:35:41;;;;;;;8.70;4.72;;;;;;;3.91;96.73;96454.91;2079794;28;20257;-61
2022/02/04 01:36:43;;;;;;;8.25;4.95;;;;;;;3.97;96.70;96456.38;2080387;28;20200;-61
2022/02/04 01:37:44;;;;;;;9.32;4.93;;;;;;;3.92;96.78;96451.41;2079813;28;20204;-61
2022/02/04 01:38:46;;;;;;;9.10;5.38;;;;;;;3.90;96.79;96460.16;2079929;28;20603;-61
2022/02/04 01:39:48;;;;;;;8.20;5.10;;;;;;;3.85;97.29;96454.34;2080588;28;20221;-62
2022/02/04 01:40:51;;;;;;;13.27;5.57;;;;;;;3.68;97.01;96435.19;2080080;28;20232;-61
2022/02/04 01:41:52;;;;;;;8.70;4.80;;;;;;;3.82;97.49;96454.47;2079742;28;20276;-61
2022/02/04 01:42:54;;;;;;;7.50;4.50;;;;;;;3.84;97.20;96452.66;2079203;28;20201;-62
2022/02/04 01:43:55;;;;;;;8.57;5.78;;;;;;;3.81;97.29;96453.63;2080634;28;20197;-61
2022/02/04 01:44:57;;;;;;;8.68;5.72;;;;;;;3.78;97.36;96448.56;2080203;28;20205;-62
2022/02/04 01:46:02;;;;;;;8.07;4.80;;;;;;;3.84;97.49;96458.69;2080462;28;20209;-61
2022/02/04 01:47:04;;;;;;;8.05;5.00;;;;;;;3.88;97.29;96459.38;2079889;28;20201;-61
2022/02/04 01:48:06;;;;;;;9.13;5.15;;;;;;;3.81;97.12;96450.22;2079879;28;20614;-61
2022/02/04 01:49:07;;;;;;;8.35;4.75;;;;;;;3.87;97.25;96465.47;2080604;28;20652;-61
2022/02/04 01:50:09;;;;;;;7.90;5.05;;;;;;;3.87;97.26;96461.13;2080025;28;20216;-61
2022/02/04 01:51:13;;;;;;;9.57;5.22;;;;;;;3.89;97.32;96461.91;2079763;28;20236;-62
2022/02/04 01:52:14;;;;;;;8.65;5.38;;;;;;;3.90;97.28;96460.16;2080504;28;20201;-62
2022/02/04 01:53:19;;;;;;;9.35;5.45;;;;;;;3.92;97.18;96455.72;2080241;28;20698;-61
2022/02/04 01:54:21;;;;;;;7.60;4.88;;;;;;;3.89;96.92;96461.06;2080320;28;20231;-61
2022/02/04 01:55:24;;;;;;;12.68;6.43;;;;;;;3.86;97.42;96441.31;2078097;28;20308;-61
2022/02/04 01:56:25;;;;;;;10.15;5.10;;;;;;;3.97;96.69;96457.22;2079766;28;20197;-61
2022/02/04 01:57:26;;;;;;;8.80;4.95;;;;;;;3.93;96.83;96449.66;2080523;28;20231;-61
2022/02/04 01:58:29;;;;;;;12.82;6.38;;;;;;;3.93;97.18;96447.06;2080433;28;20217;-62
2022/02/04 01:59:31;;;;;;;8.98;4.65;;;;;;;4.04;97.02;96443.97;2080405;28;20212;-62
2022/02/04 02:00:32;;;;;;;6.90;4.55;;;;;;;3.87;96.83;96411.91;2079840;28;20576;-62
2022/02/04 02:01:34;;;;;;;6.85;4.57;;;;;;;3.91;97.06;96443.69;2080289;28;20193;-62
2022/02/04 02:02:35;;;;;;;11.25;4.72;;;;;;;3.93;97.07;96447.06;2079786;28;20197;-61
2022/02/04 02:03:37;;;;;;;10.18;5.22;;;;;;;3.82;97.13;96431.97;2079586;28;20204;-62
2022/02/04 02:04:39;;;;;;;8.35;5.35;;;;;;;3.88;97.06;96441.25;2080309;28;20197;-61
2022/02/04 02:05:40;;;;;;;7.78;4.38;;;;;;;3.86;97.36;96446.50;2079813;28;20247;-61
2022/02/04 02:06:48;;;;;;;7.60;5.18;;;;;;;3.89;97.57;96442.94;2080394;28;20205;-61
2022/02/04 02:07:49;;;;;;;11.60;4.93;;;;;;;3.85;97.72;96438.81;2080648;28;20236;-62
2022/02/04 02:08:51;;;;;;;10.77;5.30;;;;;;;3.85;97.83;96449.16;2079669;28;20203;-62
2022/02/04 02:10:56;;;;;;;9.73;6.05;;;;;;;3.84;97.87;96452.66;2079453;28;20229;-62
2022/02/04 02:12:02;;;;;;;9.57;5.32;;;;;;;3.71;98.19;96432.47;2080124;28;20205;-62
2022/02/04 02:14:12;;;;;;;9.23;5.55;;;;;;;3.80;98.38;96451.09;2080162;28;20646;-61
2022/02/04 02:15:23;;;;;;;7.13;5.03;;;;;;;3.81;98.17;96448.44;2079765;28;20554;-61
2022/02/04 02:17:00;;;;;;;7.22;4.47;;;;;;;3.78;98.43;96445.16;2079728;28;20201;-62
2022/02/04 02:39:10;;;;;;;9.32;5.68;;;;;;;3.70;100.00;96448.06;2044988;29;20355;-61
2022/02/04 02:48:58;;;;;;;9.52;5.75;;;;;;;3.67;100.00;96449.06;2075507;28;20204;-61
2022/02/04 02:55:05;;;;;;;8.20;5.05;;;;;;;3.51;100.00;96432.53;2078243;28;20204;-61
2022/02/04 02:58:27;;;;;;;11.15;6.53;;;;;;;3.62;100.00;96447.56;2078709;28;20193;-61
2022/02/04 02:59:35;;;;;;;9.75;6.15;;;;;;;3.63;100.00;96444.94;2079004;28;20691;-61
2022/02/04 03:01:58;;;;;;;9.38;5.40;;;;;;;3.62;100.00;96443.22;2079939;28;20209;-61
2022/02/04 03:03:07;;;;;;;8.15;4.97;;;;;;;3.50;100.00;96426.47;2079833;28;20197;-61
2022/02/04 03:04:13;;;;;;;8.27;5.25;;;;;;;3.66;100.00;96443.94;2079871;28;20233;-62
2022/02/04 03:05:14;;;;;;;8.77;5.30;;;;;;;3.64;100.00;96441.41;2078654;28;20193;-61
2022/02/04 03:06:15;;;;;;;7.03;4.78;;;;;;;3.70;100.00;96450.66;2078875;28;20203;-61
2022/02/04 03:07:17;;;;;;;8.38;5.30;;;;;;;3.61;100.00;96444.16;2079656;28;20208;-61
2022/02/04 03:08:21;;;;;;;5.70;4.50;;;;;;;3.76;100.00;96447.81;2079926;28;20532;-61
2022/02/04 03:09:23;;;;;;;9.15;5.47;;;;;;;3.71;100.00;96447.19;2079711;28;20208;-61
2022/02/04 03:10:26;;;;;;;7.65;5.13;;;;;;;3.73;100.00;96453.97;2079042;28;20738;-62
2022/02/04 03:11:27;;;;;;;7.30;4.65;;;;;;;3.69;100.00;96447.25;2079831;28;20208;-61
2022/02/04 03:12:29;;;;;;;7.65;4.93;;;;;;;3.72;100.00;96449.72;2079574;28;20240;-61
2022/02/04 03:13:32;;;;;;;9.68;5.22;;;;;;;3.64;100.00;96436.22;2079062;28;20217;-61
2022/02/04 03:14:34;;;;;;;8.50;5.28;;;;;;;3.81;100.00;96451.03;2079072;28;20192;-61
2022/02/04 03:15:36;;;;;;;7.30;4.53;;;;;;;3.74;100.00;96440.13;2079081;28;20229;-61
2022/02/04 03:16:38;;;;;;;6.40;4.45;;;;;;;3.82;100.00;96451.88;2079758;28;20969;-61
2022/02/04 03:17:41;;;;;;;7.32;4.85;;;;;;;3.83;100.00;96456.16;2079659;28;20205;-61
2022/02/04 03:18:47;;;;;;;7.38;4.55;;;;;;;3.87;100.00;96455.94;2079695;28;20193;-61
2022/02/04 03:19:53;;;;;;;6.70;4.80;;;;;;;3.79;100.00;96455.44;2078565;28;20209;-61
2022/02/04 03:20:59;;;;;;;8.27;4.75;;;;;;;3.67;100.00;96446.47;2078124;28;20247;-62
2022/02/04 03:22:06;;;;;;;9.32;5.38;;;;;;;3.70;100.00;96455.84;2078975;28;20197;-61
2022/02/04 03:23:07;;;;;;;7.18;4.68;;;;;;;3.72;100.00;96446.25;2079262;28;20578;-61
2022/02/04 03:24:13;;;;;;;6.50;4.88;;;;;;;3.71;100.00;96453.19;2079568;28;20224;-61
2022/02/04 03:25:17;;;;;;;6.40;3.92;;;;;;;3.63;100.00;96438.91;2078386;28;20248;-61
2022/02/04 03:26:28;;;;;;;7.13;4.75;;;;;;;3.69;100.00;96452.44;2079540;28;20772;-61
2022/02/04 03:27:51;;;;;;;6.00;4.18;;;;;;;3.63;100.00;96447.50;2079204;28;20197;-61
2022/02/04 03:28:54;;;;;;;7.38;4.40;;;;;;;3.69;100.00;96452.44;2079387;28;20225;-60
2022/02/04 03:30:10;;;;;;;9.27;4.18;;;;;;;3.67;100.00;96451.66;2079660;28;20599;-61
2022/02/04 03:31:12;;;;;;;6.90;4.65;;;;;;;3.72;100.00;96457.47;2079231;28;20223;-61
2022/02/04 03:32:18;;;;;;;7.10;4.22;;;;;;;3.67;100.00;96454.25;2078920;28;20243;-61
2022/02/04 03:33:23;;;;;;;7.40;4.43;;;;;;;3.64;100.00;96446.59;2077523;28;20197;-61
2022/02/04 03:34:24;;;;;;;6.13;3.88;;;;;;;3.62;100.00;96451.00;2071344;28;20201;-61
2022/02/04 03:35:26;;;;;;;6.25;3.67;;;;;;;3.65;100.00;96455.22;2078350;28;20746;-61
2022/02/04 03:36:27;;;;;;;5.07;4.07;;;;;;;3.62;100.00;96452.75;2079509;28;20201;-61
2022/02/04 03:37:29;;;;;;;5.25;3.10;;;;;;;3.57;100.00;96450.38;2079463;28;20199;-61
2022/02/04 03:38:30;;;;;;;5.70;3.60;;;;;;;3.64;100.00;96454.34;2079497;28;20680;-61
2022/02/04 03:39:33;;;;;;;7.18;4.30;;;;;;;3.66;100.00;96455.13;2079438;28;20312;-60
2022/02/04 03:40:34;;;;;;;10.13;4.05;;;;;;;3.64;100.00;96450.94;2077831;28;20228;-61
2022/02/04 03:41:36;;;;;;;5.32;3.45;;;;;;;3.54;100.00;96447.91;2079533;28;20209;-61
2022/02/04 03:42:37;;;;;;;4.20;2.95;;;;;;;3.60;100.00;96455.41;2079418;28;20220;-61
2022/02/04 03:43:39;;;;;;;6.85;4.38;;;;;;;3.38;100.00;96421.84;2079732;28;20205;-61
2022/02/04 03:44:41;;;;;;;7.30;3.53;;;;;;;3.54;100.00;96440.97;2079551;28;20250;-61
2022/02/04 03:45:42;;;;;;;6.28;3.63;;;;;;;3.65;100.00;96453.47;2079110;28;20224;-61
2022/02/04 03:46:44;;;;;;;4.97;3.22;;;;;;;3.43;100.00;96422.50;2079481;28;20405;-60
2022/02/04 03:47:46;;;;;;;7.57;3.97;;;;;;;3.59;100.00;96451.16;2078947;28;20307;-61
2022/02/04 03:48:48;;;;;;;6.55;4.03;;;;;;;3.61;100.00;96445.88;2078934;28;20232;-61
2022/02/04 03:49:49;;;;;;;6.40;3.50;;;;;;;3.55;100.00;96440.06;2079518;28;20196;-61
2022/02/04 03:50:51;;;;;;;8.18;3.78;;;;;;;3.61;100.00;96451.06;2078948;28;20239;-61
2022/02/04 03:51:52;;;;;;;9.25;5.13;;;;;;;3.61;100.00;96449.34;2078784;28;20229;-61
2022/02/04 03:52:54;;;;;;;4.75;3.50;;;;;;;3.41;100.00;96426.91;2079457;28;20208;-60
2022/02/04 03:53:56;;;;;;;4.95;3.63;;;;;;;3.61;100.00;96456.25;2079640;28;20591;-61
2022/02/04 03:54:58;;;;;;;7.22;4.07;;;;;;;3.60;100.00;96458.00;2078805;28;20224;-61
2022/02/04 03:55:59;;;;;;;6.97;4.20;;;;;;;3.68;100.00;96455.06;2079066;28;20197;-61
2022/02/04 03:57:01;;;;;;;6.00;3.63;;;;;;;3.59;100.00;96440.78;2079436;28;20271;-61
2022/02/04 03:58:02;;;;;;;4.75;3.42;;;;;;;3.59;100.00;96458.91;2079533;28;20674;-60
2022/02/04 03:59:03;;;;;;;5.72;3.42;;;;;;;3.66;100.00;96462.06;2079684;28;20197;-61
2022/02/04 04:00:07;;;;;;;6.72;3.42;;;;;;;3.57;100.00;96440.00;2079016;28;20700;-61
2022/02/04 04:01:09;;;;;;;4.20;3.55;;;;;;;3.70;100.00;96461.84;2079508;28;20676;-61
2022/02/04 04:02:10;;;;;;;6.15;3.78;;;;;;;3.69;100.00;96461.94;2079450;28;20212;-61
2022/02/04 04:03:12;;;;;;;4.45;2.90;;;;;;;3.71;100.00;96462.72;2079393;28;20212;-61
2022/02/04 04:04:14;;;;;;;4.70;3.20;;;;;;;3.71;100.00;96455.78;2079599;28;20200;-61
2022/02/04 04:05:15;;;;;;;6.20;3.25;;;;;;;3.66;100.00;96460.31;2079124;28;20216;-61
2022/02/04 04:06:17;;;;;;;3.67;2.90;;;;;;;3.66;100.00;96465.50;2079487;28;20193;-61
2022/02/04 04:07:19;;;;;;;3.03;2.33;;;;;;;3.69;100.00;96457.59;2079407;28;20204;-61
2022/02/04 04:08:21;;;;;;;3.03;2.35;;;;;;;3.60;100.00;96460.59;2079561;28;20208;-61
2022/02/04 04:09:22;;;;;;;6.78;3.03;;;;;;;3.65;100.00;96458.66;2079580;28;20672;-61
2022/02/04 04:10:26;;;;;;;3.63;2.60;;;;;;;3.70;100.00;96464.44;2079003;28;20225;-61
2022/02/04 04:11:28;;;;;;;3.85;3.08;;;;;;;3.70;100.00;96471.38;2079575;28;20193;-61
2022/02/04 04:12:30;;;;;;;2.60;2.30;;;;;;;3.68;100.00;96474.03;2078468;28;20209;-61
2022/02/04 04:13:34;;;;;;;3.65;2.80;;;;;;;3.64;100.00;96467.31;2078945;28;20287;-61
2022/02/04 04:14:36;;;;;;;3.05;2.30;;;;;;;3.63;100.00;96476.00;2079719;28;20689;-61
2022/02/04 04:15:37;;;;;;;3.10;2.15;;;;;;;3.58;100.00;96456.38;2078873;28;20252;-61
2022/02/04 04:16:41;;;;;;;3.70;2.88;;;;;;;3.62;100.00;96469.13;2079418;28;20201;-61
2022/02/04 04:17:44;;;;;;;4.40;2.75;;;;;;;3.60;100.00;96476.13;2079261;28;20211;-61
2022/02/04 04:18:46;;;;;;;6.22;2.90;;;;;;;3.62;100.00;96468.28;2079025;28;20231;-61
2022/02/04 04:19:47;;;;;;;3.15;2.38;;;;;;;3.53;100.00;96462.59;2079500;28;20204;-61
2022/02/04 04:20:49;;;;;;;4.55;2.75;;;;;;;3.53;100.00;96470.38;2078985;28;20217;-61
2022/02/04 04:21:50;;;;;;;3.42;2.50;;;;;;;3.59;100.00;96479.63;2079539;28;20189;-60
2022/02/04 04:22:54;;;;;;;4.18;2.30;;;;;;;3.64;100.00;96476.84;2078881;28;20208;-61
2022/02/04 04:23:55;;;;;;;9.35;3.38;;;;;;;3.66;100.00;96481.03;2070943;28;20198;-61
2022/02/04 04:24:56;;;;;;;3.80;2.55;;;;;;;3.66;100.00;96475.84;2078698;28;20201;-61
2022/02/04 04:25:58;;;;;;;3.45;2.35;;;;;;;3.63;100.00;96470.00;2079495;28;20231;-61
2022/02/04 04:26:59;;;;;;;6.93;2.83;;;;;;;3.61;100.00;96467.47;2079484;28;20255;-61
2022/02/04 04:28:01;;;;;;;3.70;2.70;;;;;;;3.64;100.00;96471.66;2079271;28;20213;-61
2022/02/04 04:29:03;;;;;;;7.15;2.92;;;;;;;3.62;100.00;96474.31;2079118;28;20208;-61
2022/02/04 04:30:05;;;;;;;6.15;2.80;;;;;;;3.64;100.00;96477.66;2079059;28;20324;-61
2022/02/04 04:31:07;;;;;;;5.45;3.00;;;;;;;3.47;100.00;96451.66;2079122;28;20288;-61
2022/02/04 04:32:08;;;;;;;6.13;2.53;;;;;;;3.49;100.00;96462.78;2079400;28;20206;-61
2022/02/04 04:33:14;;;;;;;7.30;2.97;;;;;;;3.56;100.00;96480.59;2079452;28;20210;-61
2022/02/04 04:34:16;;;;;;;5.95;2.42;;;;;;;3.55;100.00;96484.09;2079478;28;20688;-61
2022/02/04 04:35:19;;;;;;;3.03;2.05;;;;;;;3.58;100.00;96477.94;2078174;28;20235;-61
2022/02/04 04:36:22;;;;;;;5.63;2.58;;;;;;;3.56;100.00;96475.41;2078676;28;20197;-61
2022/02/04 04:37:24;;;;;;;3.97;3.03;;;;;;;3.55;100.00;96478.09;2079477;28;20197;-61
2022/02/04 04:38:34;;;;;;;7.10;2.90;;;;;;;3.57;100.00;96473.69;2079466;28;20204;-60
2022/02/04 04:39:47;;;;;;;7.22;2.75;;;;;;;3.50;100.00;96472.25;2079399;28;20640;-61
2022/02/04 04:41:04;;;;;;;4.88;2.70;;;;;;;3.55;100.00;96478.09;2078693;28;20586;-61
2022/02/04 04:42:14;;;;;;;3.22;2.50;;;;;;;3.62;100.00;96483.84;2079429;28;20236;-61
2022/02/04 04:46:22;;;;;;;11.27;3.35;;;;;;;3.51;100.00;96471.34;2078358;28;20232;-60
2022/02/04 05:30:04;;;;;;;4.75;2.60;;;;;;;3.46;100.00;96494.84;2080905;28;20261;-60
2022/02/04 05:31:28;;;;;;;3.97;2.85;;;;;;;3.48;100.00;96484.44;2078879;28;20303;-59
2022/02/04 05:32:30;;;;;;;6.95;3.05;;;;;;;3.45;100.00;96479.34;2080102;28;20204;-60
2022/02/04 05:33:31;;;;;;;9.32;3.28;;;;;;;3.50;100.00;96493.78;2080449;28;20209;-61
2022/02/04 05:34:34;;;;;;;5.15;3.78;;;;;;;3.52;100.00;96485.97;2080502;28;20204;-59
2022/02/04 05:35:36;;;;;;;6.60;3.53;;;;;;;3.58;100.00;96484.88;2080112;28;20626;-59
2022/02/04 05:36:42;;;;;;;9.25;5.57;;;;;;;3.47;100.00;96485.31;2080635;28;20775;-59
2022/02/04 05:37:47;;;;;;;6.82;4.45;;;;;;;3.45;100.00;96484.53;2080170;28;20204;-59
2022/02/04 05:38:51;;;;;;;8.05;5.40;;;;;;;3.30;100.00;96466.16;2079973;28;20193;-59
2022/02/04 05:39:59;;;;;;;9.90;6.57;;;;;;;3.44;100.00;96488.06;2080508;28;20523;-59
2022/02/04 05:41:02;;;;;;;11.15;5.72;;;;;;;3.42;100.00;96487.28;2080059;28;20742;-58
2022/02/04 05:42:06;;;;;;;6.20;4.20;;;;;;;3.40;100.00;96484.75;2080569;28;20201;-58
2022/02/04 05:43:17;;;;;;;12.63;4.15;;;;;;;3.35;100.00;96469.41;2080441;28;20208;-58
2022/02/04 05:44:19;;;;;;;4.88;3.45;;;;;;;3.41;100.00;96485.56;2079563;28;20193;-59
2022/02/04 05:45:23;;;;;;;7.38;3.70;;;;;;;3.45;100.00;96482.81;2078562;28;20275;-59
2022/02/04 05:46:32;;;;;;;6.13;3.90;;;;;;;3.48;100.00;96482.66;2080305;28;20200;-59
2022/02/04 05:47:35;;;;;;;5.97;3.20;;;;;;;3.44;100.00;96481.13;2080499;28;20209;-59
2022/02/04 05:48:40;;;;;;;8.82;3.92;;;;;;;3.42;100.00;96477.75;2079502;28;20197;-59
2022/02/04 05:49:50;;;;;;;5.32;3.78;;;;;;;3.29;100.00;96467.09;2079828;28;20197;-58
2022/02/04 05:51:05;;;;;;;5.18;3.33;;;;;;;3.36;100.00;96484.03;2079846;28;20229;-59
2022/02/04 05:52:14;;;;;;;8.40;4.60;;;;;;;3.42;100.00;96490.69;2080124;28;20272;-59
2022/02/04 05:53:18;;;;;;;15.70;5.70;;;;;;;3.39;100.00;96488.22;2079614;28;20201;-58
2022/02/04 05:54:42;;;;;;;8.65;4.93;;;;;;;3.42;100.00;96487.28;2079648;28;20216;-59
2022/02/04 05:58:18;;;;;;;6.47;4.60;;;;;;;3.51;100.00;96495.50;2080540;28;20375;-59
2022/02/04 05:59:59;;;;;;;6.95;4.80;;;;;;;3.50;100.00;96490.38;2080575;28;20240;-58
2022/02/04 06:01:01;;;;;;;5.57;3.92;;;;;;;3.46;100.00;96494.00;2078768;28;20233;-59
2022/02/04 06:06:19;;;;;;;5.15;3.95;;;;;;;3.37;100.00;96500.38;2079782;28;20229;-59
2022/02/04 06:08:44;;;;;;;6.28;3.10;;;;;;;3.45;100.00;96502.66;2079335;28;20201;-58
2022/02/04 06:22:29;;;;;;;5.75;2.80;;;;;;;3.35;100.00;96499.63;2080561;28;20192;-59
2022/02/04 06:23:32;;;;;;;4.55;2.70;;;;;;;3.39;100.00;96498.56;2080241;28;20200;-58
2022/02/04 06:24:37;;;;;;;3.72;2.90;;;;;;;3.45;100.00;96507.84;2079179;28;20201;-59
2022/02/04 06:25:40;;;;;;;3.80;2.58;;;;;;;3.49;100.00;96514.56;2079735;28;20264;-59
2022/02/04 06:26:41;;;;;;;6.00;3.60;;;;;;;3.52;100.00;96506.69;2080709;28;20245;-59
2022/02/04 06:27:44;;;;;;;3.47;2.60;;;;;;;3.58;100.00;96509.00;2080025;28;20708;-58
2022/02/04 06:28:45;;;;;;;5.53;2.97;;;;;;;3.63;100.00;96506.25;2079505;28;20197;-59
2022/02/04 06:29:52;;;;;;;5.38;3.10;;;;;;;3.58;100.00;96506.44;2079171;28;20193;-59
2022/02/04 06:30:53;;;;;;;9.52;3.67;;;;;;;3.44;100.00;96494.06;2079264;28;20723;-59
2022/02/04 06:31:55;;;;;;;4.05;3.00;;;;;;;3.53;100.00;96505.78;2079949;28;20204;-59
2022/02/04 06:32:56;;;;;;;4.95;3.75;;;;;;;3.52;100.00;96511.88;2080158;28;20200;-58
2022/02/04 06:33:58;;;;;;;4.10;2.95;;;;;;;3.56;100.00;96510.81;2079922;28;20209;-59
2022/02/04 06:35:02;;;;;;;5.25;3.90;;;;;;;3.53;100.00;96510.97;2078879;28;20204;-59
2022/02/04 06:36:04;;;;;;;4.70;3.30;;;;;;;3.53;100.00;96509.22;2080046;28;20761;-59
2022/02/04 06:37:06;;;;;;;5.05;3.75;;;;;;;3.55;100.00;96504.81;2079789;28;20197;-59
2022/02/04 06:38:07;;;;;;;5.07;3.28;;;;;;;3.37;100.00;96497.81;2079476;28;20200;-59
2022/02/04 06:39:09;;;;;;;4.25;3.35;;;;;;;3.43;100.00;96502.75;2078941;28;20663;-59
2022/02/04 06:40:11;;;;;;;4.80;2.95;;;;;;;3.33;100.00;96489.34;2079626;28;20516;-59
2022/02/04 06:41:13;;;;;;;3.65;2.85;;;;;;;3.35;100.00;96505.66;2079192;28;20228;-59
2022/02/04 06:42:20;;;;;;;15.82;7.63;;;;;;;3.31;100.00;96505.81;2079848;28;20193;-62
2022/02/04 06:43:22;;;;;;;6.07;4.75;;;;;;;3.27;100.00;96505.09;2079104;28;20201;-61
2022/02/04 06:44:24;;;;;;;7.65;5.18;;;;;;;3.24;100.00;96505.25;2078976;28;20189;-59
2022/02/04 06:45:26;;;;;;;14.52;8.20;;;;;;;3.19;100.00;96504.59;2062640;28;20233;-59
2022/02/04 06:46:30;;;;;;;5.80;3.58;;;;;;;3.38;100.00;96515.03;2071638;28;20322;-59
2022/02/04 06:47:32;;;;;;;4.15;3.22;;;;;;;3.33;100.00;96493.66;2079986;28;20205;-60
2022/02/04 06:48:33;;;;;;;5.55;3.60;;;;;;;3.26;100.00;96503.44;2079879;28;20204;-62
2022/02/04 06:49:34;;;;;;;3.92;3.20;;;;;;;3.18;100.00;96508.09;2079900;28;20197;-62
2022/02/04 06:50:36;;;;;;;5.35;2.90;;;;;;;3.15;100.00;96505.63;2079432;28;20227;-62
2022/02/04 06:51:39;;;;;;;3.88;2.55;;;;;;;3.12;100.00;96509.19;2079613;28;20225;-62
2022/02/04 06:52:43;;;;;;;5.50;2.78;;;;;;;3.12;100.00;96503.16;2079996;28;20200;-62
2022/02/04 06:53:44;;;;;;;3.95;2.45;;;;;;;3.15;100.00;96508.22;2078956;28;20207;-62
2022/02/04 06:54:46;;;;;;;4.13;2.80;;;;;;;3.09;100.00;96511.03;2079245;28;20213;-62
2022/02/04 06:55:47;;;;;;;5.15;3.00;;;;;;;3.13;100.00;96510.00;2079346;28;20231;-62
2022/02/04 06:56:49;;;;;;;3.80;2.70;;;;;;;3.15;100.00;96510.78;2079920;28;20189;-62
2022/02/04 06:57:53;;;;;;;3.05;2.67;;;;;;;3.11;100.00;96515.25;2079913;28;20212;-62
2022/02/04 06:58:54;;;;;;;4.13;2.50;;;;;;;3.08;100.00;96519.72;2079175;28;20699;-62
2022/02/04 07:00:00;;;;;;;4.13;2.83;;;;;;;3.05;100.00;96510.31;2078921;28;20193;-62
2022/02/04 07:01:01;;;;;;;5.40;2.75;;;;;;;3.06;100.00;96509.44;2079294;28;20201;-62
2022/02/04 07:02:03;;;;;;;8.02;2.28;;;;;;;3.07;100.00;96510.25;2079115;28;20197;-62
2022/02/04 07:03:06;;;;;;;3.35;2.60;;;;;;;3.12;100.00;96511.78;2079884;28;20200;-62
2022/02/04 07:04:09;;;;;;;3.88;2.13;;;;;;;3.13;100.00;96516.03;2079752;28;20275;-62
2022/02/04 07:05:13;;;;;;;3.05;2.20;;;;;;;3.09;100.00;96511.03;2079351;28;20205;-62
2022/02/04 07:06:15;;;;;;;3.78;2.50;;;;;;;3.13;100.00;96510.84;2079813;28;20708;-62
2022/02/04 07:07:18;;;;;;;4.28;2.35;;;;;;;3.22;100.00;96517.41;2079783;28;20208;-63
2022/02/04 07:08:30;;;;;;;7.78;4.78;;;;;;;3.21;100.00;96509.72;2079223;28;20197;-63
2022/02/04 07:13:16;;;;;;;4.70;3.28;;;;;;;3.15;100.00;96511.63;2079717;28;20228;-62
2022/02/04 07:17:07;;;;;;;3.90;2.80;;;;;;;3.03;100.00;96493.19;2079912;28;20205;-61
2022/02/04 07:19:45;;;;;;;4.65;3.28;;;;;;;3.23;100.00;96518.25;2078772;28;20291;-60
2022/02/04 07:20:44;;;;;;;6.60;3.17;;;;;;;3.17;100.00;96516.75;2078863;28;20228;-60
2022/02/04 07:21:46;;;;;;;4.25;3.10;;;;;;;3.21;100.00;96518.31;2079706;28;20545;-60
2022/02/04 07:22:48;;;;;;;8.32;3.47;;;;;;;3.17;100.00;96517.63;2079328;28;20201;-60
2022/02/04 07:23:50;;;;;;;4.97;3.45;;;;;;;3.22;100.00;96517.41;2079502;28;20200;-60
2022/02/04 07:24:56;;;;;;;4.63;3.90;;;;;;;3.21;100.00;96520.88;2078666;28;20509;-60
2022/02/04 07:25:58;;;;;;;5.32;3.83;;;;;;;3.31;100.00;96511.00;2070608;28;20735;-59
2022/02/04 07:26:59;;;;;;;4.85;4.00;;;;;;;3.31;100.00;96508.41;2078862;28;20220;-60
2022/02/04 07:28:01;;;;;;;6.20;3.88;;;;;;;3.25;100.00;96511.25;2079543;28;20205;-60
2022/02/04 07:29:14;;;;;;;9.38;4.47;;;;;;;3.32;100.00;96518.72;2079669;28;20229;-60
2022/02/04 07:30:15;;;;;;;6.47;3.75;;;;;;;3.23;100.00;96513.91;2077543;28;20201;-59
2022/02/04 07:31:18;;;;;;;4.95;3.85;;;;;;;3.26;100.00;96513.78;2079510;28;20193;-60
2022/02/04 07:32:39;;;;;;;8.90;3.70;;;;;;;3.25;100.00;96524.19;2079036;28;20659;-60
2022/02/04 07:33:45;;;;;;;10.25;3.70;;;;;;;3.25;100.00;96525.03;2078837;28;20551;-60
2022/02/04 07:41:05;;;;;;;6.93;3.85;;;;;;;3.20;100.00;96492.50;2078741;28;20228;-59
2022/02/04 07:42:06;;;;;;;5.20;3.30;;;;;;;3.17;100.00;96498.63;2078555;28;20303;-60
2022/02/04 07:43:08;;;;;;;4.80;3.55;;;;;;;3.13;100.00;96502.25;2079447;28;20193;-60
2022/02/04 07:44:10;;;;;;;3.92;2.88;;;;;;;3.23;100.00;96510.47;2078121;28;20546;-60
2022/02/04 07:45:12;;;;;;;4.10;3.10;;;;;;;3.26;100.00;96512.97;2082780;28;20266;-60
2022/02/04 07:46:16;;;;;;;6.80;3.20;;;;;;;3.22;100.00;96509.66;2082368;28;20200;-60
2022/02/04 07:47:17;;;;;;;5.38;3.17;;;;;;;3.21;100.00;96507.13;2079087;28;20197;-60
2022/02/04 07:48:19;;;;;;;4.28;3.05;;;;;;;3.20;100.00;96514.06;2078131;28;20568;-60
2022/02/04 07:49:21;;;;;;;7.57;3.80;;;;;;;3.22;100.00;96506.22;2079042;28;20208;-60
2022/02/04 07:50:22;;;;;;;6.03;3.72;;;;;;;3.42;100.00;96508.00;2077777;28;20588;-60
2022/02/04 07:51:24;;;;;;;4.53;3.15;;;;;;;3.50;100.00;96500.72;2079255;28;20598;-60
2022/02/04 07:52:25;;;;;;;4.90;2.88;;;;;;;3.39;100.00;96503.75;2079388;28;20231;-60
2022/02/04 07:53:30;;;;;;;3.10;2.70;;;;;;;3.44;100.00;96503.59;2079054;28;20351;-60
2022/02/04 07:54:32;;;;;;;8.60;3.20;;;;;;;3.47;100.00;96508.63;2079110;28;20251;-60
2022/02/04 07:55:33;;;;;;;2.83;2.30;;;;;;;3.40;100.00;96502.88;2078775;28;20228;-60
2022/02/04 07:56:35;;;;;;;4.35;2.22;;;;;;;3.60;98.34;96496.84;2079131;28;20193;-60
2022/02/04 07:57:37;;;;;;;4.18;2.38;;;;;;;3.61;97.92;96503.72;2078348;28;20549;-60
2022/02/04 07:58:38;;;;;;;3.15;2.05;;;;;;;3.16;98.18;96440.88;2079110;28;20197;-60
2022/02/04 07:59:40;;;;;;;2.30;1.83;;;;;;;3.40;98.18;96497.69;2079378;28;20193;-60
2022/02/04 08:00:42;;;;;;;4.18;2.10;;;;;;;3.37;98.71;96495.22;2078180;28;20580;-60